sensor_id;sensor_type;location;lat;lon;timestamp;temperature;humidity
29431;DHT22;16404;49.902;10.074;2024-02-21T00:02:10;11.00;62.90
29431;DHT22;16404;49.902;10.074;2024-02-21T00:04:55;11.00;62.90
29431;DHT22;16404;49.902;10.074;2024-02-21T00:07:39;11.10;62.80
29431;DHT22;16404;49.902;10.074;2024-02-21T00:10:24;11.10;62.80
29431;DHT22;16404;49.902;10.074;2024-02-21T00:13:09;11.20;62.80
29431;DHT22;16404;49.902;10.074;2024-02-21T00:15:54;11.10;62.70
29431;DHT22;16404;49.902;10.074;2024-02-21T00:18:38;11.20;63.40
29431;DHT22;16404;49.902;10.074;2024-02-21T00:21:23;11.20;62.70
29431;DHT22;16404;49.902;10.074;2024-02-21T00:24:07;11.20;62.50
29431;DHT22;16404;49.902;10.074;2024-02-21T00:26:53;11.20;62.40
29431;DHT22;16404;49.902;10.074;2024-02-21T00:29:37;11.20;62.40
29431;DHT22;16404;49.902;10.074;2024-02-21T00:32:22;11.20;62.50
29431;DHT22;16404;49.902;10.074;2024-02-21T00:35:07;11.10;62.50
29431;DHT22;16404;49.902;10.074;2024-02-21T00:37:52;11.10;62.60
29431;DHT22;16404;49.902;10.074;2024-02-21T00:40:36;11.10;62.70
29431;DHT22;16404;49.902;10.074;2024-02-21T00:43:20;11.10;62.70
29431;DHT22;16404;49.902;10.074;2024-02-21T00:46:07;11.20;62.60
29431;DHT22;16404;49.902;10.074;2024-02-21T00:48:52;11.20;62.60
29431;DHT22;16404;49.902;10.074;2024-02-21T00:51:36;11.20;62.60
29431;DHT22;16404;49.902;10.074;2024-02-21T00:54:21;11.20;62.60
29431;DHT22;16404;49.902;10.074;2024-02-21T00:57:06;11.20;62.40
29431;DHT22;16404;49.902;10.074;2024-02-21T00:59:51;11.30;62.30
29431;DHT22;16404;49.902;10.074;2024-02-21T01:02:35;11.30;62.10
29431;DHT22;16404;49.902;10.074;2024-02-21T01:05:20;11.30;62.80
29431;DHT22;16404;49.902;10.074;2024-02-21T01:08:05;11.30;62.70
29431;DHT22;16404;49.902;10.074;2024-02-21T01:10:49;11.40;62.00
29431;DHT22;16404;49.902;10.074;2024-02-21T01:13:34;11.30;61.90
29431;DHT22;16404;49.902;10.074;2024-02-21T01:16:18;11.30;61.80
29431;DHT22;16404;49.902;10.074;2024-02-21T01:19:03;11.30;61.90
29431;DHT22;16404;49.902;10.074;2024-02-21T01:21:48;11.30;62.00
29431;DHT22;16404;49.902;10.074;2024-02-21T01:24:33;11.30;62.10
29431;DHT22;16404;49.902;10.074;2024-02-21T01:27:17;11.20;62.10
29431;DHT22;16404;49.902;10.074;2024-02-21T01:30:02;11.20;62.10
29431;DHT22;16404;49.902;10.074;2024-02-21T01:32:48;11.10;62.20
29431;DHT22;16404;49.902;10.074;2024-02-21T01:35:34;11.00;62.50
29431;DHT22;16404;49.902;10.074;2024-02-21T01:38:18;11.00;62.80
29431;DHT22;16404;49.902;10.074;2024-02-21T01:41:03;10.90;62.90
29431;DHT22;16404;49.902;10.074;2024-02-21T01:43:47;10.90;63.10
29431;DHT22;16404;49.902;10.074;2024-02-21T01:46:32;10.90;63.00
29431;DHT22;16404;49.902;10.074;2024-02-21T01:49:17;11.00;62.90
29431;DHT22;16404;49.902;10.074;2024-02-21T01:52:02;11.10;62.60
29431;DHT22;16404;49.902;10.074;2024-02-21T01:54:48;11.30;62.30
29431;DHT22;16404;49.902;10.074;2024-02-21T01:57:32;11.30;62.10
29431;DHT22;16404;49.902;10.074;2024-02-21T02:00:17;11.40;62.00
29431;DHT22;16404;49.902;10.074;2024-02-21T02:03:02;11.50;61.90
29431;DHT22;16404;49.902;10.074;2024-02-21T02:05:49;11.50;61.90
29431;DHT22;16404;49.902;10.074;2024-02-21T02:08:33;11.50;62.00
29431;DHT22;16404;49.902;10.074;2024-02-21T02:11:18;11.50;62.30
29431;DHT22;16404;49.902;10.074;2024-02-21T02:14:02;11.40;62.50
29431;DHT22;16404;49.902;10.074;2024-02-21T02:16:47;11.40;62.90
29431;DHT22;16404;49.902;10.074;2024-02-21T02:19:31;11.30;63.20
29431;DHT22;16404;49.902;10.074;2024-02-21T02:22:22;11.20;64.20
29431;DHT22;16404;49.902;10.074;2024-02-21T02:25:07;11.20;63.80
29431;DHT22;16404;49.902;10.074;2024-02-21T02:27:53;11.20;63.80
29431;DHT22;16404;49.902;10.074;2024-02-21T02:30:37;11.20;63.90
29431;DHT22;16404;49.902;10.074;2024-02-21T02:33:21;11.30;63.80
29431;DHT22;16404;49.902;10.074;2024-02-21T02:36:06;11.20;63.80
29431;DHT22;16404;49.902;10.074;2024-02-21T02:38:50;11.20;64.10
29431;DHT22;16404;49.902;10.074;2024-02-21T02:41:36;11.20;64.30
29431;DHT22;16404;49.902;10.074;2024-02-21T02:44:20;11.30;64.40
29431;DHT22;16404;49.902;10.074;2024-02-21T02:47:04;11.40;63.90
29431;DHT22;16404;49.902;10.074;2024-02-21T02:49:49;11.40;63.70
29431;DHT22;16404;49.902;10.074;2024-02-21T02:52:34;11.30;64.20
29431;DHT22;16404;49.902;10.074;2024-02-21T02:55:19;11.20;64.60
29431;DHT22;16404;49.902;10.074;2024-02-21T02:58:04;11.10;65.00
29431;DHT22;16404;49.902;10.074;2024-02-21T03:00:49;11.00;65.40
29431;DHT22;16404;49.902;10.074;2024-02-21T03:03:33;11.00;65.60
29431;DHT22;16404;49.902;10.074;2024-02-21T03:06:18;10.90;65.80
29431;DHT22;16404;49.902;10.074;2024-02-21T03:09:02;10.90;66.00
29431;DHT22;16404;49.902;10.074;2024-02-21T03:11:52;10.90;66.10
29431;DHT22;16404;49.902;10.074;2024-02-21T03:14:41;10.80;66.30
29431;DHT22;16404;49.902;10.074;2024-02-21T03:17:25;10.80;66.30
29431;DHT22;16404;49.902;10.074;2024-02-21T03:20:13;10.80;66.30
29431;DHT22;16404;49.902;10.074;2024-02-21T03:22:57;10.80;66.40
29431;DHT22;16404;49.902;10.074;2024-02-21T03:25:42;10.70;67.30
29431;DHT22;16404;49.902;10.074;2024-02-21T03:28:26;10.70;66.70
29431;DHT22;16404;49.902;10.074;2024-02-21T03:31:11;10.70;66.90
29431;DHT22;16404;49.902;10.074;2024-02-21T03:33:56;10.60;66.90
29431;DHT22;16404;49.902;10.074;2024-02-21T03:36:41;10.60;67.00
29431;DHT22;16404;49.902;10.074;2024-02-21T03:39:26;10.60;67.10
29431;DHT22;16404;49.902;10.074;2024-02-21T03:42:10;10.60;67.30
29431;DHT22;16404;49.902;10.074;2024-02-21T03:44:55;10.60;67.20
29431;DHT22;16404;49.902;10.074;2024-02-21T03:47:40;10.60;67.20
29431;DHT22;16404;49.902;10.074;2024-02-21T03:50:24;10.80;67.00
29431;DHT22;16404;49.902;10.074;2024-02-21T03:53:11;10.80;66.50
29431;DHT22;16404;49.902;10.074;2024-02-21T03:55:56;10.70;66.70
29431;DHT22;16404;49.902;10.074;2024-02-21T03:58:41;10.80;66.60
29431;DHT22;16404;49.902;10.074;2024-02-21T04:01:25;10.70;66.60
29431;DHT22;16404;49.902;10.074;2024-02-21T04:04:10;10.70;66.90
29431;DHT22;16404;49.902;10.074;2024-02-21T04:06:55;10.70;66.90
29431;DHT22;16404;49.902;10.074;2024-02-21T04:09:39;10.70;66.90
29431;DHT22;16404;49.902;10.074;2024-02-21T04:12:24;10.70;66.90
29431;DHT22;16404;49.902;10.074;2024-02-21T04:15:08;10.80;67.00
29431;DHT22;16404;49.902;10.074;2024-02-21T04:17:54;10.80;66.80
29431;DHT22;16404;49.902;10.074;2024-02-21T04:20:38;10.80;66.60
29431;DHT22;16404;49.902;10.074;2024-02-21T04:23:23;10.90;66.40
29431;DHT22;16404;49.902;10.074;2024-02-21T04:26:07;10.90;66.10
29431;DHT22;16404;49.902;10.074;2024-02-21T04:28:52;10.90;66.00
29431;DHT22;16404;49.902;10.074;2024-02-21T04:31:37;10.80;66.70
29431;DHT22;16404;49.902;10.074;2024-02-21T04:34:21;10.80;66.10
29431;DHT22;16404;49.902;10.074;2024-02-21T04:37:06;10.80;66.10
29431;DHT22;16404;49.902;10.074;2024-02-21T04:39:50;10.70;66.00
29431;DHT22;16404;49.902;10.074;2024-02-21T04:42:35;10.80;66.00
29431;DHT22;16404;49.902;10.074;2024-02-21T04:45:19;10.70;65.90
29431;DHT22;16404;49.902;10.074;2024-02-21T04:48:04;10.70;65.80
29431;DHT22;16404;49.902;10.074;2024-02-21T04:50:48;10.70;65.70
29431;DHT22;16404;49.902;10.074;2024-02-21T04:53:33;10.60;65.80
29431;DHT22;16404;49.902;10.074;2024-02-21T04:56:17;10.50;65.90
29431;DHT22;16404;49.902;10.074;2024-02-21T04:59:02;10.50;66.00
29431;DHT22;16404;49.902;10.074;2024-02-21T05:01:47;10.50;66.20
29431;DHT22;16404;49.902;10.074;2024-02-21T05:04:31;10.30;66.30
29431;DHT22;16404;49.902;10.074;2024-02-21T05:07:16;10.30;66.50
29431;DHT22;16404;49.902;10.074;2024-02-21T05:10:00;10.30;66.50
29431;DHT22;16404;49.902;10.074;2024-02-21T05:12:45;10.20;66.60
29431;DHT22;16404;49.902;10.074;2024-02-21T05:15:29;10.20;66.60
29431;DHT22;16404;49.902;10.074;2024-02-21T05:18:14;10.10;66.70
29431;DHT22;16404;49.902;10.074;2024-02-21T05:20:59;10.10;66.90
29431;DHT22;16404;49.902;10.074;2024-02-21T05:23:43;10.10;67.10
29431;DHT22;16404;49.902;10.074;2024-02-21T05:26:28;10.00;67.10
29431;DHT22;16404;49.902;10.074;2024-02-21T05:29:13;10.00;67.40
29431;DHT22;16404;49.902;10.074;2024-02-21T05:31:57;10.10;67.30
29431;DHT22;16404;49.902;10.074;2024-02-21T05:34:42;10.00;67.10
29431;DHT22;16404;49.902;10.074;2024-02-21T05:37:27;10.00;67.40
29431;DHT22;16404;49.902;10.074;2024-02-21T05:40:12;10.00;67.80
29431;DHT22;16404;49.902;10.074;2024-02-21T05:42:57;9.90;68.00
29431;DHT22;16404;49.902;10.074;2024-02-21T05:45:41;9.90;68.30
29431;DHT22;16404;49.902;10.074;2024-02-21T05:48:26;9.90;68.60
29431;DHT22;16404;49.902;10.074;2024-02-21T05:51:11;9.90;68.80
29431;DHT22;16404;49.902;10.074;2024-02-21T05:53:56;9.90;68.90
29431;DHT22;16404;49.902;10.074;2024-02-21T05:56:44;10.00;68.80
29431;DHT22;16404;49.902;10.074;2024-02-21T05:59:28;10.00;68.60
29431;DHT22;16404;49.902;10.074;2024-02-21T06:02:15;10.10;68.40
29431;DHT22;16404;49.902;10.074;2024-02-21T06:04:59;10.20;68.20
29431;DHT22;16404;49.902;10.074;2024-02-21T06:07:44;10.30;67.80
29431;DHT22;16404;49.902;10.074;2024-02-21T06:10:28;10.40;67.60
29431;DHT22;16404;49.902;10.074;2024-02-21T06:13:13;10.40;68.10
29431;DHT22;16404;49.902;10.074;2024-02-21T06:15:57;10.50;67.90
29431;DHT22;16404;49.902;10.074;2024-02-21T06:18:42;10.50;67.00
29431;DHT22;16404;49.902;10.074;2024-02-21T06:21:30;10.50;67.10
29431;DHT22;16404;49.902;10.074;2024-02-21T06:24:14;10.40;67.20
29431;DHT22;16404;49.902;10.074;2024-02-21T06:26:59;10.50;67.10
29431;DHT22;16404;49.902;10.074;2024-02-21T06:29:43;10.50;67.20
29431;DHT22;16404;49.902;10.074;2024-02-21T06:32:28;10.50;67.20
29431;DHT22;16404;49.902;10.074;2024-02-21T06:35:12;10.50;67.10
29431;DHT22;16404;49.902;10.074;2024-02-21T06:37:57;10.50;67.10
29431;DHT22;16404;49.902;10.074;2024-02-21T06:40:41;10.50;67.10
29431;DHT22;16404;49.902;10.074;2024-02-21T06:43:26;10.50;67.30
29431;DHT22;16404;49.902;10.074;2024-02-21T06:46:11;10.40;67.60
29431;DHT22;16404;49.902;10.074;2024-02-21T06:48:56;10.40;68.00
29431;DHT22;16404;49.902;10.074;2024-02-21T06:51:40;10.30;68.30
29431;DHT22;16404;49.902;10.074;2024-02-21T06:54:25;10.30;68.60
29431;DHT22;16404;49.902;10.074;2024-02-21T06:57:10;10.30;68.70
29431;DHT22;16404;49.902;10.074;2024-02-21T06:59:54;10.30;69.60
29431;DHT22;16404;49.902;10.074;2024-02-21T07:02:39;10.30;69.70
29431;DHT22;16404;49.902;10.074;2024-02-21T07:05:23;10.40;69.00
29431;DHT22;16404;49.902;10.074;2024-02-21T07:08:08;10.40;69.00
29431;DHT22;16404;49.902;10.074;2024-02-21T07:10:52;10.50;69.00
29431;DHT22;16404;49.902;10.074;2024-02-21T07:13:37;10.50;69.00
29431;DHT22;16404;49.902;10.074;2024-02-21T07:16:22;10.60;69.00
29431;DHT22;16404;49.902;10.074;2024-02-21T07:19:06;10.60;68.80
29431;DHT22;16404;49.902;10.074;2024-02-21T07:21:51;10.70;68.70
29431;DHT22;16404;49.902;10.074;2024-02-21T07:24:35;10.80;68.70
29431;DHT22;16404;49.902;10.074;2024-02-21T07:27:21;10.90;68.50
29431;DHT22;16404;49.902;10.074;2024-02-21T07:30:06;11.00;68.30
29431;DHT22;16404;49.902;10.074;2024-02-21T07:32:51;11.00;68.00
29431;DHT22;16404;49.902;10.074;2024-02-21T07:35:36;11.10;67.90
29431;DHT22;16404;49.902;10.074;2024-02-21T07:38:21;11.20;67.70
29431;DHT22;16404;49.902;10.074;2024-02-21T07:41:06;11.20;67.60
29431;DHT22;16404;49.902;10.074;2024-02-21T07:43:51;11.20;67.60
29431;DHT22;16404;49.902;10.074;2024-02-21T07:46:36;11.20;67.70
29431;DHT22;16404;49.902;10.074;2024-02-21T07:49:20;11.20;67.90
29431;DHT22;16404;49.902;10.074;2024-02-21T07:52:05;11.10;68.00
29431;DHT22;16404;49.902;10.074;2024-02-21T07:54:50;11.20;68.20
29431;DHT22;16404;49.902;10.074;2024-02-21T07:57:34;11.30;68.10
29431;DHT22;16404;49.902;10.074;2024-02-21T08:00:19;11.40;67.90
29431;DHT22;16404;49.902;10.074;2024-02-21T08:03:03;11.50;67.70
29431;DHT22;16404;49.902;10.074;2024-02-21T08:05:48;11.50;67.30
29431;DHT22;16404;49.902;10.074;2024-02-21T08:08:33;11.50;67.30
29431;DHT22;16404;49.902;10.074;2024-02-21T08:11:17;11.40;67.40
29431;DHT22;16404;49.902;10.074;2024-02-21T08:14:02;11.40;67.40
29431;DHT22;16404;49.902;10.074;2024-02-21T08:16:47;11.50;67.30
29431;DHT22;16404;49.902;10.074;2024-02-21T08:19:32;11.70;67.10
29431;DHT22;16404;49.902;10.074;2024-02-21T08:22:16;11.70;66.60
29431;DHT22;16404;49.902;10.074;2024-02-21T08:25:01;11.80;66.50
29431;DHT22;16404;49.902;10.074;2024-02-21T08:27:45;11.90;66.10
29431;DHT22;16404;49.902;10.074;2024-02-21T08:30:30;12.00;65.90
29431;DHT22;16404;49.902;10.074;2024-02-21T08:33:15;12.30;65.60
29431;DHT22;16404;49.902;10.074;2024-02-21T08:36:00;12.40;64.90
29431;DHT22;16404;49.902;10.074;2024-02-21T08:38:45;12.80;64.40
29431;DHT22;16404;49.902;10.074;2024-02-21T08:41:34;13.10;63.70
29431;DHT22;16404;49.902;10.074;2024-02-21T08:44:18;13.40;62.80
29431;DHT22;16404;49.902;10.074;2024-02-21T08:47:03;13.70;61.90
29431;DHT22;16404;49.902;10.074;2024-02-21T08:49:49;13.70;61.40
29431;DHT22;16404;49.902;10.074;2024-02-21T08:52:34;13.80;61.30
29431;DHT22;16404;49.902;10.074;2024-02-21T08:55:18;13.90;61.10
29431;DHT22;16404;49.902;10.074;2024-02-21T08:58:03;14.00;60.90
29431;DHT22;16404;49.902;10.074;2024-02-21T09:00:48;14.10;60.70
29431;DHT22;16404;49.902;10.074;2024-02-21T09:03:33;14.20;60.80
29431;DHT22;16404;49.902;10.074;2024-02-21T09:06:18;14.10;60.40
29431;DHT22;16404;49.902;10.074;2024-02-21T09:09:02;14.00;60.20
29431;DHT22;16404;49.902;10.074;2024-02-21T09:11:47;13.80;60.80
29431;DHT22;16404;49.902;10.074;2024-02-21T09:14:32;13.80;61.20
29431;DHT22;16404;49.902;10.074;2024-02-21T09:17:16;13.80;61.20
29431;DHT22;16404;49.902;10.074;2024-02-21T09:20:08;13.90;61.20
29431;DHT22;16404;49.902;10.074;2024-02-21T09:22:56;14.00;60.70
29431;DHT22;16404;49.902;10.074;2024-02-21T09:25:40;14.00;60.30
29431;DHT22;16404;49.902;10.074;2024-02-21T09:28:25;14.00;60.50
29431;DHT22;16404;49.902;10.074;2024-02-21T09:31:09;14.00;61.80
29431;DHT22;16404;49.902;10.074;2024-02-21T09:33:54;14.00;61.30
29431;DHT22;16404;49.902;10.074;2024-02-21T09:36:39;14.10;60.50
29431;DHT22;16404;49.902;10.074;2024-02-21T09:39:24;14.00;60.10
29431;DHT22;16404;49.902;10.074;2024-02-21T09:42:11;13.90;60.20
29431;DHT22;16404;49.902;10.074;2024-02-21T09:44:56;13.80;59.90
29431;DHT22;16404;49.902;10.074;2024-02-21T09:50:56;13.80;60.20
29431;DHT22;16404;49.902;10.074;2024-02-21T09:53:42;13.70;60.10
29431;DHT22;16404;49.902;10.074;2024-02-21T09:56:27;13.70;60.30
29431;DHT22;16404;49.902;10.074;2024-02-21T09:59:12;13.50;60.30
29431;DHT22;16404;49.902;10.074;2024-02-21T10:01:57;13.40;60.80
29431;DHT22;16404;49.902;10.074;2024-02-21T10:04:44;13.50;60.90
29431;DHT22;16404;49.902;10.074;2024-02-21T10:07:29;13.50;60.40
29431;DHT22;16404;49.902;10.074;2024-02-21T10:10:14;13.50;60.50
29431;DHT22;16404;49.902;10.074;2024-02-21T10:13:00;13.50;60.60
29431;DHT22;16404;49.902;10.074;2024-02-21T10:15:44;13.50;60.80
29431;DHT22;16404;49.902;10.074;2024-02-21T10:18:34;13.50;60.30
29431;DHT22;16404;49.902;10.074;2024-02-21T10:21:19;13.50;60.10
29431;DHT22;16404;49.902;10.074;2024-02-21T10:24:04;13.40;60.10
29431;DHT22;16404;49.902;10.074;2024-02-21T10:27:02;13.50;59.90
29431;DHT22;16404;49.902;10.074;2024-02-21T10:29:49;13.40;60.10
29431;DHT22;16404;49.902;10.074;2024-02-21T10:32:35;13.40;60.10
29431;DHT22;16404;49.902;10.074;2024-02-21T10:35:31;13.40;60.00
29431;DHT22;16404;49.902;10.074;2024-02-21T10:38:16;13.40;59.80
29431;DHT22;16404;49.902;10.074;2024-02-21T10:41:00;13.50;59.80
29431;DHT22;16404;49.902;10.074;2024-02-21T10:43:51;13.60;59.70
29431;DHT22;16404;49.902;10.074;2024-02-21T10:46:37;13.70;59.80
29431;DHT22;16404;49.902;10.074;2024-02-21T10:49:24;13.80;59.40
29431;DHT22;16404;49.902;10.074;2024-02-21T10:55:29;13.70;59.10
29431;DHT22;16404;49.902;10.074;2024-02-21T10:58:17;13.80;58.70
29431;DHT22;16404;49.902;10.074;2024-02-21T11:01:02;13.90;58.70
29431;DHT22;16404;49.902;10.074;2024-02-21T11:03:51;13.90;58.90
29431;DHT22;16404;49.902;10.074;2024-02-21T11:06:38;14.00;58.70
29431;DHT22;16404;49.902;10.074;2024-02-21T11:09:30;14.00;58.90
29431;DHT22;16404;49.902;10.074;2024-02-21T11:12:20;14.00;58.90
29431;DHT22;16404;49.902;10.074;2024-02-21T11:15:06;14.20;58.50
29431;DHT22;16404;49.902;10.074;2024-02-21T11:17:54;14.40;57.90
29431;DHT22;16404;49.902;10.074;2024-02-21T11:20:39;14.60;57.80
29431;DHT22;16404;49.902;10.074;2024-02-21T11:23:27;14.60;57.60
29431;DHT22;16404;49.902;10.074;2024-02-21T11:26:19;14.60;57.40
29431;DHT22;16404;49.902;10.074;2024-02-21T11:29:04;14.70;57.40
29431;DHT22;16404;49.902;10.074;2024-02-21T11:31:48;14.80;56.90
29431;DHT22;16404;49.902;10.074;2024-02-21T11:34:33;14.90;56.60
29431;DHT22;16404;49.902;10.074;2024-02-21T11:37:17;15.00;56.40
29431;DHT22;16404;49.902;10.074;2024-02-21T11:40:03;15.00;56.30
29431;DHT22;16404;49.902;10.074;2024-02-21T11:42:47;15.10;55.70
29431;DHT22;16404;49.902;10.074;2024-02-21T11:45:32;15.20;55.90
29431;DHT22;16404;49.902;10.074;2024-02-21T11:48:17;15.30;55.50
29431;DHT22;16404;49.902;10.074;2024-02-21T11:51:02;15.30;55.10
29431;DHT22;16404;49.902;10.074;2024-02-21T11:53:47;15.30;55.30
29431;DHT22;16404;49.902;10.074;2024-02-21T11:56:32;15.30;55.10
29431;DHT22;16404;49.902;10.074;2024-02-21T11:59:16;15.40;55.00
29431;DHT22;16404;49.902;10.074;2024-02-21T12:02:01;15.50;54.90
29431;DHT22;16404;49.902;10.074;2024-02-21T12:04:47;15.50;54.60
29431;DHT22;16404;49.902;10.074;2024-02-21T12:07:33;15.60;54.10
29431;DHT22;16404;49.902;10.074;2024-02-21T12:10:18;15.70;54.10
29431;DHT22;16404;49.902;10.074;2024-02-21T12:13:07;15.70;53.90
29431;DHT22;16404;49.902;10.074;2024-02-21T12:15:52;15.70;53.20
29431;DHT22;16404;49.902;10.074;2024-02-21T12:18:36;15.70;53.20
29431;DHT22;16404;49.902;10.074;2024-02-21T12:21:26;15.70;53.00
29431;DHT22;16404;49.902;10.074;2024-02-21T12:24:14;15.80;52.80
29431;DHT22;16404;49.902;10.074;2024-02-21T12:26:58;15.80;52.30
29431;DHT22;16404;49.902;10.074;2024-02-21T12:29:43;15.80;52.60
29431;DHT22;16404;49.902;10.074;2024-02-21T12:32:28;15.90;52.90
29431;DHT22;16404;49.902;10.074;2024-02-21T12:35:12;15.80;52.50
29431;DHT22;16404;49.902;10.074;2024-02-21T12:37:57;15.80;52.20
29431;DHT22;16404;49.902;10.074;2024-02-21T12:40:41;15.90;52.40
29431;DHT22;16404;49.902;10.074;2024-02-21T12:43:26;15.80;52.20
29431;DHT22;16404;49.902;10.074;2024-02-21T12:46:11;15.90;52.20
29431;DHT22;16404;49.902;10.074;2024-02-21T12:48:55;16.00;52.40
29431;DHT22;16404;49.902;10.074;2024-02-21T12:51:40;16.10;52.00
29431;DHT22;16404;49.902;10.074;2024-02-21T12:54:26;16.10;52.30
29431;DHT22;16404;49.902;10.074;2024-02-21T12:57:10;16.10;51.70
29431;DHT22;16404;49.902;10.074;2024-02-21T12:59:55;16.10;51.30
29431;DHT22;16404;49.902;10.074;2024-02-21T13:02:40;16.10;51.10
29431;DHT22;16404;49.902;10.074;2024-02-21T13:05:24;16.10;51.10
29431;DHT22;16404;49.902;10.074;2024-02-21T13:08:09;16.10;51.00
29431;DHT22;16404;49.902;10.074;2024-02-21T13:10:54;16.10;50.60
29431;DHT22;16404;49.902;10.074;2024-02-21T13:13:38;16.00;50.60
29431;DHT22;16404;49.902;10.074;2024-02-21T13:16:23;16.10;50.50
29431;DHT22;16404;49.902;10.074;2024-02-21T13:19:08;16.20;50.40
29431;DHT22;16404;49.902;10.074;2024-02-21T13:21:52;16.10;50.60
29431;DHT22;16404;49.902;10.074;2024-02-21T13:24:36;16.10;50.40
29431;DHT22;16404;49.902;10.074;2024-02-21T13:27:21;16.30;50.20
29431;DHT22;16404;49.902;10.074;2024-02-21T13:30:06;16.30;50.00
29431;DHT22;16404;49.902;10.074;2024-02-21T13:32:53;16.30;49.90
29431;DHT22;16404;49.902;10.074;2024-02-21T13:35:38;16.30;49.90
29431;DHT22;16404;49.902;10.074;2024-02-21T13:38:23;16.30;49.70
29431;DHT22;16404;49.902;10.074;2024-02-21T13:41:08;16.30;49.60
29431;DHT22;16404;49.902;10.074;2024-02-21T13:43:52;16.20;49.40
29431;DHT22;16404;49.902;10.074;2024-02-21T13:46:37;16.20;49.50
29431;DHT22;16404;49.902;10.074;2024-02-21T13:49:21;16.40;49.60
29431;DHT22;16404;49.902;10.074;2024-02-21T13:52:06;16.50;49.20
29431;DHT22;16404;49.902;10.074;2024-02-21T13:54:51;16.50;49.60
29431;DHT22;16404;49.902;10.074;2024-02-21T13:57:36;16.40;49.60
29431;DHT22;16404;49.902;10.074;2024-02-21T14:00:21;16.50;49.40
29431;DHT22;16404;49.902;10.074;2024-02-21T14:03:05;16.60;49.50
29431;DHT22;16404;49.902;10.074;2024-02-21T14:05:50;16.60;49.30
29431;DHT22;16404;49.902;10.074;2024-02-21T14:08:34;16.60;49.40
29431;DHT22;16404;49.902;10.074;2024-02-21T14:11:20;16.60;49.00
29431;DHT22;16404;49.902;10.074;2024-02-21T14:14:05;16.60;48.90
29431;DHT22;16404;49.902;10.074;2024-02-21T14:16:49;16.50;49.30
29431;DHT22;16404;49.902;10.074;2024-02-21T14:19:34;16.40;49.70
29431;DHT22;16404;49.902;10.074;2024-02-21T14:22:18;16.40;50.00
29431;DHT22;16404;49.902;10.074;2024-02-21T14:25:04;16.40;49.50
29431;DHT22;16404;49.902;10.074;2024-02-21T14:27:51;16.40;49.20
29431;DHT22;16404;49.902;10.074;2024-02-21T14:30:36;16.40;49.00
29431;DHT22;16404;49.902;10.074;2024-02-21T14:33:20;16.40;48.60
29431;DHT22;16404;49.902;10.074;2024-02-21T14:36:05;16.40;48.50
29431;DHT22;16404;49.902;10.074;2024-02-21T14:38:50;16.30;48.60
29431;DHT22;16404;49.902;10.074;2024-02-21T14:41:35;16.30;48.80
29431;DHT22;16404;49.902;10.074;2024-02-21T14:44:20;16.30;49.00
29431;DHT22;16404;49.902;10.074;2024-02-21T14:47:04;16.30;49.10
29431;DHT22;16404;49.902;10.074;2024-02-21T14:49:49;16.30;48.90
29431;DHT22;16404;49.902;10.074;2024-02-21T14:52:33;16.30;48.90
29431;DHT22;16404;49.902;10.074;2024-02-21T14:55:19;16.10;49.00
29431;DHT22;16404;49.902;10.074;2024-02-21T14:58:07;16.20;48.90
29431;DHT22;16404;49.902;10.074;2024-02-21T15:00:55;16.20;48.70
29431;DHT22;16404;49.902;10.074;2024-02-21T15:03:39;16.20;48.60
29431;DHT22;16404;49.902;10.074;2024-02-21T15:06:24;16.20;48.50
29431;DHT22;16404;49.902;10.074;2024-02-21T15:09:08;16.20;48.30
29431;DHT22;16404;49.902;10.074;2024-02-21T15:11:53;16.30;48.50
29431;DHT22;16404;49.902;10.074;2024-02-21T15:14:37;16.30;48.60
29431;DHT22;16404;49.902;10.074;2024-02-21T15:17:22;16.40;48.20
29431;DHT22;16404;49.902;10.074;2024-02-21T15:20:07;16.40;48.00
29431;DHT22;16404;49.902;10.074;2024-02-21T15:22:53;16.30;48.00
29431;DHT22;16404;49.902;10.074;2024-02-21T15:25:37;16.30;48.50
29431;DHT22;16404;49.902;10.074;2024-02-21T15:28:22;16.40;48.60
29431;DHT22;16404;49.902;10.074;2024-02-21T15:31:06;16.30;48.60
29431;DHT22;16404;49.902;10.074;2024-02-21T15:33:52;16.30;48.50
29431;DHT22;16404;49.902;10.074;2024-02-21T15:36:36;16.30;48.50
29431;DHT22;16404;49.902;10.074;2024-02-21T15:39:21;16.20;48.70
29431;DHT22;16404;49.902;10.074;2024-02-21T15:42:06;16.20;48.90
29431;DHT22;16404;49.902;10.074;2024-02-21T15:44:50;16.10;48.80
29431;DHT22;16404;49.902;10.074;2024-02-21T15:47:35;16.00;48.80
29431;DHT22;16404;49.902;10.074;2024-02-21T15:50:20;16.00;49.10
29431;DHT22;16404;49.902;10.074;2024-02-21T15:53:04;15.90;50.00
29431;DHT22;16404;49.902;10.074;2024-02-21T15:55:49;15.90;49.80
29431;DHT22;16404;49.902;10.074;2024-02-21T15:58:34;15.80;50.00
29431;DHT22;16404;49.902;10.074;2024-02-21T16:01:18;15.70;50.30
29431;DHT22;16404;49.902;10.074;2024-02-21T16:04:03;15.60;50.60
29431;DHT22;16404;49.902;10.074;2024-02-21T16:06:48;15.50;50.90
29431;DHT22;16404;49.902;10.074;2024-02-21T16:09:35;15.50;51.00
29431;DHT22;16404;49.902;10.074;2024-02-21T16:12:19;15.40;51.10
29431;DHT22;16404;49.902;10.074;2024-02-21T16:15:04;15.30;51.10
29431;DHT22;16404;49.902;10.074;2024-02-21T16:17:49;15.30;51.20
29431;DHT22;16404;49.902;10.074;2024-02-21T16:20:33;15.30;51.20
29431;DHT22;16404;49.902;10.074;2024-02-21T16:23:18;15.20;51.20
29431;DHT22;16404;49.902;10.074;2024-02-21T16:26:03;15.10;52.20
29431;DHT22;16404;49.902;10.074;2024-02-21T16:28:47;15.00;51.80
29431;DHT22;16404;49.902;10.074;2024-02-21T16:31:32;15.00;52.00
29431;DHT22;16404;49.902;10.074;2024-02-21T16:34:17;14.90;52.10
29431;DHT22;16404;49.902;10.074;2024-02-21T16:37:01;14.80;52.30
29431;DHT22;16404;49.902;10.074;2024-02-21T16:39:46;14.80;52.50
29431;DHT22;16404;49.902;10.074;2024-02-21T16:42:31;14.70;52.60
29431;DHT22;16404;49.902;10.074;2024-02-21T16:45:16;14.60;52.50
29431;DHT22;16404;49.902;10.074;2024-02-21T16:48:02;14.60;52.40
29431;DHT22;16404;49.902;10.074;2024-02-21T16:50:49;14.60;52.20
29431;DHT22;16404;49.902;10.074;2024-02-21T16:53:34;14.50;52.10
29431;DHT22;16404;49.902;10.074;2024-02-21T16:56:18;14.50;52.20
29431;DHT22;16404;49.902;10.074;2024-02-21T16:59:03;14.40;52.30
29431;DHT22;16404;49.902;10.074;2024-02-21T17:01:48;14.40;52.50
29431;DHT22;16404;49.902;10.074;2024-02-21T17:04:35;14.30;52.50
29431;DHT22;16404;49.902;10.074;2024-02-21T17:07:20;14.30;52.70
29431;DHT22;16404;49.902;10.074;2024-02-21T17:10:05;14.30;52.90
29431;DHT22;16404;49.902;10.074;2024-02-21T17:12:50;14.20;53.10